Lemoore Naval Air Station, California
Current Conditions -  °F | °C
As of 9:56 PM on Tuesday 21 Oct 2014 (Local Time) from KNLC Reporting Station
Few Clouds Few Clouds  
Wind Chill: 58°   Ceiling: Unl
Heat Index: 58°   Visibility: 10mi
Dew Point: 39°   Wind: 10mph
Humidity: 49%   Direction: 320°NW
Pressure: 30.02"   Gusts: NA
Location:  36.2897°N, 119.848°W
Report Text: KNLC 220456Z 32009KT 10SM FEW240 14/04 A3002 RMK AO2 SLP166 RH/49 T01440039
Loading
Personal Weather Stations






























Interactive Weather Map
Tropical Storm Tracking
New forecast layout! Learn more

10-Day Weather Forecast

Advertisements
Track Severe Weather on mobile